Currently 53°F in Pinon Hills, California, USA
53°F
66°F / 46°F
calm
0.00"
Thursday, November 15, 2018 9:44 PM PST

Pinon Hills, California Weather Summary
Last 36 Hours

Temperature Winds Hourly Humidity Dewpoint
Time Report Norm Report Norm Max Gusts Precip. Rpt. Norm Rpt. Norm Pressure
1Thu 09:44 PM  53.3°F  49°F  calm  2 mph  none  0.00"  26%  37%  17°F  23°F  30.12"
Thu 09:00 PM  53.5°F  50°F  calm  2 mph  none  0.00"  25%  36%  17°F  23°F  30.12"
Thu 08:00 PM  53.2°F  50°F  calm  2 mph  4 mph  0.00"  25%  37%  16°F  24°F  30.12"
Thu 07:00 PM  51.3°F  51°F  2 mph SW  2 mph  4 mph  0.00"  26%  36%  16°F  23°F  30.13"
Thu 06:00 PM  51.2°F  52°F  calm  2 mph  4 mph  0.00"  25%  36%  15°F  25°F  30.13"
Thu 05:00 PM  54.2°F  54°F  2 mph SW  2 mph  4 mph  0.00"  23%  34%  15°F  25°F  30.12"
Thu 04:00 PM  61.6°F  60°F  calm  2 mph  5 mph  0.00"  17%  28%  15°F  25°F  30.12"
Thu 03:00 PM  62.9°F  62°F  calm  4 mph  8 mph  0.00"  17%  26%  15°F  25°F  30.12"
Thu 02:00 PM  65.4°F  63°F  calm  4 mph  9 mph  0.00"  15%  25%  14°F  24°F  30.12"
Thu 01:00 PM  65.6°F  63°F  3 mph SE  4 mph  9 mph  0.00"  15%  25%  14°F  25°F  30.13"
2Thu 12:27 PM  66.4°F  62°F  1 mph N  4 mph  9 mph  ----  14%  25%  14°F  25°F  30.15"
Thu 12:00 PM  65.2°F  62°F  3 mph S  5 mph  9 mph  0.00"  15%  26%  14°F  25°F  30.16"
Thu 11:00 AM  62.9°F  60°F  7 mph SE  4 mph  11 mph  0.00"  16%  28%  14°F  26°F  30.18"
Thu 10:00 AM  62.1°F  59°F  5 mph E  3 mph  10 mph  0.00"  16%  30%  13°F  26°F  30.19"
Thu 09:00 AM  60.4°F  57°F  3 mph E  3 mph  9 mph  0.00"  16%  31%  12°F  25°F  30.20"
Thu 08:00 AM  56.8°F  54°F  4 mph SE  2 mph  9 mph  0.00"  18%  33%  11°F  24°F  30.21"
Thu 07:00 AM  50.4°F  49°F  calm  2 mph  8 mph  0.00"  21%  37%  10°F  22°F  30.22"
Thu 06:00 AM  46.5°F  48°F  2 mph S  2 mph  6 mph  0.00"  24%  37%  10°F  22°F  30.22"
3Thu 05:59 AM  46.3°F  48°F  2 mph SW  2 mph  4 mph  ----  24%  37%  10°F  22°F  30.22"
Thu 05:00 AM  49.6°F  48°F  3 mph S  2 mph  7 mph  0.00"  23%  38%  11°F  22°F  30.22"
Thu 04:00 AM  48.8°F  48°F  3 mph S  2 mph  7 mph  0.00"  22%  37%  10°F  22°F  30.22"
Thu 03:00 AM  50.6°F  49°F  4 mph S  2 mph  8 mph  0.00"  21%  36%  10°F  21°F  30.23"
Thu 02:00 AM  48.4°F  48°F  4 mph S  2 mph  7 mph  0.00"  22%  36%  10°F  21°F  30.24"
Thu 01:00 AM  47.0°F  49°F  2 mph S  2 mph  4 mph  0.00"  24%  35%  10°F  21°F  30.24"
Thu 12:00 AM  48.3°F  49°F  1 mph SW  2 mph  5 mph  0.00"  23%  36%  11°F  22°F  30.25"
Wed 11:00 PM  49.8°F  49°F  calm  2 mph  6 mph  0.00"  22%  36%  11°F  22°F  30.27"
Wed 10:00 PM  50.8°F  49°F  3 mph S  2 mph  7 mph  0.00"  22%  36%  11°F  22°F  30.27"
Wed 09:00 PM  52.0°F  50°F  2 mph S  2 mph  10 mph  0.00"  21%  35%  11°F  23°F  30.27"
Wed 08:00 PM  53.1°F  50°F  4 mph S  2 mph  10 mph  0.00"  20%  37%  11°F  23°F  30.27"
Wed 07:00 PM  52.2°F  51°F  3 mph S  2 mph  8 mph  0.00"  20%  36%  10°F  23°F  30.26"
Wed 06:00 PM  50.2°F  52°F  calm  2 mph  6 mph  0.00"  21%  37%  10°F  25°F  30.27"
Wed 05:00 PM  51.0°F  54°F  1 mph S  2 mph  5 mph  0.00"  21%  35%  10°F  25°F  30.26"
Wed 04:00 PM  58.1°F  60°F  calm  3 mph  8 mph  0.00"  16%  28%  10°F  25°F  30.26"
Wed 03:00 PM  60.5°F  62°F  3 mph SE  4 mph  7 mph  0.00"  14%  26%  9°F  26°F  30.27"
Wed 02:00 PM  60.4°F  63°F  1 mph E  5 mph  10 mph  0.00"  14%  25%  8°F  25°F  30.27"
Wed 01:00 PM  60.5°F  63°F  6 mph SE  4 mph  11 mph  0.00"  13%  25%  7°F  25°F  30.28"
Wed 12:00 PM  60.2°F  62°F  5 mph E  4 mph  12 mph  0.00"  13%  26%  7°F  25°F  30.31"
Wed 11:00 AM  58.8°F  60°F  4 mph SE  4 mph  13 mph  0.00"  14%  29%  7°F  26°F  30.34"
Wed 10:00 AM  57.0°F  59°F  6 mph SE  3 mph  10 mph  0.00"  15%  30%  8°F  26°F  30.35"

  1. Current weather data. No green row appears if the current weather data is also the high or low for the current day.
  2. High temperature for the current day.
  3. Low temperature for the current day.

The Pinon Hills, California weather pages are a service of WeatherCurrents.
Copyright ©Thu Nov 15 21:45:19 PST 2018  WeatherCurrents. All rights reserved. - Submit questions and comments - Privacy Policy

This page automatically refreshes every 10 minutes.